Time;durP1;ratioP1;P1;durP2;ratioP2;P2;SDS_P1;SDS_P2;PMS_P1;PMS_P2;Temp;Humidity;BMP_temperature;BMP_pressure;BME280_temperature;BME280_humidity;BME280_pressure;Samples;Min_cycle;Max_cycle;Signal;HPM_P1;HPM_P2
2023/06/11 00:00:19;;;;;;;5.40;2.88;;;;;;;15.93;72.79;94261.75;5092733;28;20024;-76
2023/06/11 00:02:44;;;;;;;3.30;2.75;;;;;;;15.84;73.18;94255.75;5092118;28;20117;-76
2023/06/11 00:05:10;;;;;;;3.45;2.80;;;;;;;15.90;73.05;94260.31;5093930;28;20024;-76
2023/06/11 00:07:37;;;;;;;4.10;3.05;;;;;;;15.91;72.11;94248.84;5092690;28;20043;-76
2023/06/11 00:10:03;;;;;;;3.80;2.78;;;;;;;15.88;72.04;94243.97;5075805;28;20118;-76
2023/06/11 00:12:29;;;;;;;4.10;3.10;;;;;;;15.85;72.25;94254.75;5075480;28;20050;-77
2023/06/11 00:14:55;;;;;;;3.50;2.53;;;;;;;15.80;72.62;94247.44;5093718;28;20400;-76
2023/06/11 00:17:20;;;;;;;3.97;2.80;;;;;;;15.88;72.53;94249.19;5092317;28;20467;-76
2023/06/11 00:19:47;;;;;;;3.30;2.90;;;;;;;15.81;72.54;94248.25;5092342;28;20024;-76
2023/06/11 00:22:14;;;;;;;5.22;3.00;;;;;;;15.81;72.61;94256.09;5093521;28;20036;-76
2023/06/11 00:24:40;;;;;;;6.85;3.50;;;;;;;15.82;72.31;94253.34;5092398;28;20032;-76
2023/06/11 00:27:06;;;;;;;5.78;2.92;;;;;;;15.74;72.52;94260.38;5092364;28;20115;-76
2023/06/11 00:29:31;;;;;;;3.42;2.88;;;;;;;15.82;72.65;94252.50;5093347;28;20035;-76
2023/06/11 00:31:57;;;;;;;6.47;3.10;;;;;;;15.93;72.91;94248.66;5075176;28;20048;-76
2023/06/11 00:34:22;;;;;;;4.30;2.85;;;;;;;15.82;72.76;94242.00;5092125;28;20024;-75
2023/06/11 00:36:47;;;;;;;4.03;2.50;;;;;;;15.80;72.95;94255.31;5058462;28;20448;-76
2023/06/11 00:39:13;;;;;;;3.95;2.80;;;;;;;15.73;72.60;94220.31;5075123;28;20493;-76
2023/06/11 00:41:45;;;;;;;5.50;3.35;;;;;;;15.93;72.87;94253.91;5092979;28;20425;-76
2023/06/11 00:44:17;;;;;;;4.20;3.10;;;;;;;15.94;72.79;94255.56;5076064;28;20115;-76
2023/06/11 00:46:44;;;;;;;4.80;3.38;;;;;;;15.80;72.83;94244.81;5060090;28;20067;-76
2023/06/11 00:49:11;;;;;;;3.92;3.20;;;;;;;15.58;72.77;94228.06;5058387;28;20064;-76
2023/06/11 00:51:38;;;;;;;3.50;2.95;;;;;;;15.61;72.98;94248.66;5091685;28;20039;-75
2023/06/11 00:54:03;;;;;;;4.47;2.85;;;;;;;15.53;72.89;94246.06;5091460;28;20021;-76
2023/06/11 00:56:29;;;;;;;3.35;2.63;;;;;;;15.61;72.95;94266.97;5058202;28;20069;-76
2023/06/11 00:58:54;;;;;;;5.10;3.10;;;;;;;15.55;73.07;94259.81;5092860;28;20020;-76
2023/06/11 01:01:25;;;;;;;3.28;2.75;;;;;;;15.56;73.36;94245.72;5090992;28;20031;-76
2023/06/11 01:03:52;;;;;;;4.43;3.33;;;;;;;15.45;73.78;94246.09;5091297;28;20113;-76
2023/06/11 01:06:18;;;;;;;4.13;3.03;;;;;;;15.48;74.03;94253.63;5091463;28;20062;-76
2023/06/11 01:08:44;;;;;;;5.03;2.97;;;;;;;15.39;74.03;94250.22;5074666;28;20020;-76
2023/06/11 01:11:21;;;;;;;4.70;2.90;;;;;;;15.51;73.63;94252.47;5074688;28;20399;-76
2023/06/11 01:13:47;;;;;;;5.07;3.05;;;;;;;15.34;74.12;94249.09;5091184;28;20070;-76
2023/06/11 01:16:16;;;;;;;7.60;3.30;;;;;;;15.55;73.60;94254.56;5092401;28;20081;-76
2023/06/11 01:19:12;;;;;;;5.40;3.08;;;;;;;15.49;74.21;94268.34;5091115;28;20426;-76
2023/06/11 01:21:46;;;;;;;3.45;2.90;;;;;;;15.47;74.28;94266.88;5091392;28;20165;-76
2023/06/11 01:24:21;;;;;;;3.58;3.03;;;;;;;15.60;74.12;94267.13;5074294;28;20036;-76
2023/06/11 01:27:08;;;;;;;4.90;2.97;;;;;;;15.53;74.38;94269.63;5074627;28;20036;-76
2023/06/11 01:29:35;;;;;;;3.65;3.00;;;;;;;15.48;74.77;94253.63;5091111;28;20563;-76
2023/06/11 01:32:00;;;;;;;3.88;3.05;;;;;;;15.51;74.55;94258.50;5074149;28;20119;-76
2023/06/11 01:34:26;;;;;;;4.53;3.17;;;;;;;15.46;74.69;94260.00;5073875;28;20031;-76
2023/06/11 01:36:52;;;;;;;4.85;3.10;;;;;;;15.48;74.66;94266.69;5092297;28;20032;-76
2023/06/11 01:39:19;;;;;;;4.25;3.20;;;;;;;15.46;74.75;94262.63;5092224;28;20402;-77
2023/06/11 01:41:44;;;;;;;3.95;3.35;;;;;;;15.39;74.88;94260.69;5092146;28;20525;-76
2023/06/11 01:44:10;;;;;;;5.55;3.22;;;;;;;15.32;75.32;94248.44;5090488;28;20020;-76
2023/06/11 01:46:35;;;;;;;4.20;3.42;;;;;;;15.43;75.36;94261.16;5073973;28;20117;-76
2023/06/11 01:49:01;;;;;;;4.82;3.08;;;;;;;15.39;75.19;94252.03;5090687;28;20399;-76
2023/06/11 01:51:26;;;;;;;3.83;3.42;;;;;;;15.34;75.09;94252.53;5090968;28;20028;-76
2023/06/11 01:53:54;;;;;;;5.53;3.70;;;;;;;15.28;75.07;94252.41;5090405;28;20032;-76
2023/06/11 01:56:20;;;;;;;4.90;3.28;;;;;;;15.40;74.59;94258.88;5090684;28;20020;-76
2023/06/11 01:58:46;;;;;;;5.03;3.42;;;;;;;15.34;74.90;94256.94;5090643;28;20089;-76
2023/06/11 02:01:12;;;;;;;4.82;3.20;;;;;;;15.31;75.01;94265.94;5091862;28;20028;-76
2023/06/11 02:03:38;;;;;;;3.95;3.55;;;;;;;15.41;74.94;94260.53;5090380;28;20036;-76
2023/06/11 02:06:04;;;;;;;3.92;3.38;;;;;;;15.43;75.14;94263.78;5057132;28;20028;-76
2023/06/11 02:08:30;;;;;;;4.13;3.63;;;;;;;15.48;75.03;94268.50;5090608;28;20375;-76
2023/06/11 02:10:55;;;;;;;4.75;4.10;;;;;;;15.47;75.25;94261.66;5091698;28;20027;-76
2023/06/11 02:13:21;;;;;;;4.97;3.90;;;;;;;15.37;75.52;94256.59;5089258;28;20535;-76
2023/06/11 02:15:46;;;;;;;4.30;3.70;;;;;;;15.48;75.59;94258.84;5090485;28;20035;-76
2023/06/11 02:18:11;;;;;;;4.80;4.00;;;;;;;15.50;75.59;94258.69;5073764;28;20039;-76
2023/06/11 02:20:37;;;;;;;5.32;3.33;;;;;;;15.41;75.49;94260.53;5090434;28;20050;-76
2023/06/11 02:23:03;;;;;;;6.70;3.55;;;;;;;15.42;75.75;94270.00;5091418;28;20039;-76
2023/06/11 02:25:29;;;;;;;5.93;3.53;;;;;;;15.49;75.55;94262.28;5091496;28;20020;-76
2023/06/11 02:27:54;;;;;;;7.35;3.78;;;;;;;15.48;75.73;94271.94;5090369;28;20105;-76
2023/06/11 02:30:20;;;;;;;7.05;3.90;;;;;;;15.36;75.72;94268.06;5090332;28;20081;-76
2023/06/11 02:32:45;;;;;;;5.43;3.60;;;;;;;15.39;75.61;94255.44;5091316;28;20039;-76
2023/06/11 02:35:11;;;;;;;6.07;4.13;;;;;;;15.47;75.36;94266.88;5090306;28;20039;-76
2023/06/11 02:37:36;;;;;;;5.85;3.65;;;;;;;15.52;75.05;94267.19;5091577;28;20028;-76
2023/06/11 02:40:02;;;;;;;4.60;3.90;;;;;;;15.40;75.36;94261.50;5056245;28;20082;-76
2023/06/11 02:42:28;;;;;;;5.10;4.00;;;;;;;15.48;74.94;94261.47;5091661;28;20024;-76
2023/06/11 02:44:53;;;;;;;4.85;3.92;;;;;;;15.34;75.25;94268.22;5091151;28;20482;-76
2023/06/11 02:47:18;;;;;;;4.50;3.95;;;;;;;15.27;75.09;94264.66;5073075;28;20121;-76
2023/06/11 02:49:44;;;;;;;4.82;4.10;;;;;;;15.24;75.34;94266.78;5072820;28;20048;-76
2023/06/11 02:52:10;;;;;;;5.03;3.95;;;;;;;15.05;75.68;94253.13;5090101;28;20032;-76
2023/06/11 02:54:35;;;;;;;4.15;3.70;;;;;;;15.13;75.58;94262.75;5073156;28;20028;-77
2023/06/11 02:57:00;;;;;;;4.63;4.10;;;;;;;15.07;75.63;94272.09;5090006;28;20040;-76
2023/06/11 02:59:26;;;;;;;4.70;3.92;;;;;;;15.12;75.58;94259.31;5090893;28;20039;-77
2023/06/11 03:01:51;;;;;;;5.00;3.97;;;;;;;15.19;75.24;94260.28;5073076;28;20031;-76
2023/06/11 03:04:17;;;;;;;6.53;4.57;;;;;;;15.18;75.53;94263.03;5073048;28;20695;-76
2023/06/11 03:06:42;;;;;;;6.28;4.18;;;;;;;15.22;75.39;94266.16;5089784;28;20024;-77
2023/06/11 03:09:07;;;;;;;5.13;3.30;;;;;;;15.25;75.13;94265.81;5089603;28;20039;-77
2023/06/11 03:11:33;;;;;;;5.00;3.67;;;;;;;15.17;75.18;94271.88;5091103;28;20020;-77
2023/06/11 03:13:58;;;;;;;4.85;4.00;;;;;;;15.21;75.33;94278.44;5091107;28;20032;-77
2023/06/11 03:16:24;;;;;;;4.35;3.80;;;;;;;15.12;75.42;94261.91;5072922;28;20020;-77
2023/06/11 03:18:49;;;;;;;5.75;4.03;;;;;;;15.35;75.15;94269.03;5089370;28;20470;-77
2023/06/11 03:21:15;;;;;;;4.53;4.00;;;;;;;15.28;75.42;94268.09;5090930;28;20410;-77
2023/06/11 03:23:40;;;;;;;5.20;4.20;;;;;;;15.38;75.44;94273.97;5073518;28;20099;-77
2023/06/11 03:26:06;;;;;;;4.80;4.15;;;;;;;15.32;75.76;94274.63;5093520;28;20031;-77
2023/06/11 03:28:31;;;;;;;5.10;4.20;;;;;;;15.33;75.52;94271.03;5093347;28;20028;-77
2023/06/11 03:30:56;;;;;;;4.57;4.00;;;;;;;15.29;75.93;94281.00;5093581;28;20035;-77
2023/06/11 03:33:22;;;;;;;5.47;4.10;;;;;;;15.23;76.50;94276.44;5076586;28;20040;-76
2023/06/11 03:35:47;;;;;;;5.25;4.20;;;;;;;15.28;76.19;94286.41;5076367;28;20039;-76
2023/06/11 03:38:13;;;;;;;5.72;4.13;;;;;;;15.39;76.29;94294.72;5076118;28;20100;-77
2023/06/11 03:40:38;;;;;;;5.70;4.32;;;;;;;15.43;76.16;94297.78;5093187;28;20020;-77
2023/06/11 03:43:04;;;;;;;5.18;4.38;;;;;;;15.67;75.35;94294.28;5076042;28;20047;-76
2023/06/11 03:45:29;;;;;;;5.18;4.60;;;;;;;15.54;74.98;94273.06;5076324;28;20489;-77
2023/06/11 03:47:56;;;;;;;5.97;5.00;;;;;;;15.70;75.48;94296.59;5094130;28;20028;-76
2023/06/11 03:50:22;;;;;;;6.55;4.25;;;;;;;15.75;75.97;94306.56;5094253;28;20106;-76
2023/06/11 03:52:47;;;;;;;6.68;4.03;;;;;;;15.92;75.88;94305.47;5093048;28;20127;-77
2023/06/11 03:55:13;;;;;;;4.05;3.60;;;;;;;15.79;75.80;94299.97;5094149;28;20057;-77
2023/06/11 03:57:39;;;;;;;5.30;4.45;;;;;;;15.96;75.56;94317.22;5094035;28;20028;-77
2023/06/11 04:00:06;;;;;;;5.13;4.07;;;;;;;15.91;75.85;94305.63;5092886;28;20486;-77
2023/06/11 04:02:31;;;;;;;5.03;4.30;;;;;;;16.11;74.23;94306.03;5093019;28;20032;-76
2023/06/11 04:04:57;;;;;;;5.63;4.50;;;;;;;16.04;74.56;94304.09;5092689;28;20035;-77
2023/06/11 04:07:22;;;;;;;5.68;4.38;;;;;;;15.93;74.77;94299.25;5075669;28;20036;-77
2023/06/11 04:09:48;;;;;;;7.07;4.57;;;;;;;15.85;75.39;94300.13;5092456;28;20036;-77
2023/06/11 04:12:13;;;;;;;7.13;5.03;;;;;;;15.77;75.30;94305.41;5092755;28;20036;-77
2023/06/11 04:14:38;;;;;;;6.90;4.88;;;;;;;15.94;74.58;94297.47;5093527;28;20506;-77
2023/06/11 04:17:04;;;;;;;6.15;4.70;;;;;;;16.04;73.93;94292.81;5092542;28;20044;-77
2023/06/11 04:19:30;;;;;;;6.70;4.60;;;;;;;15.99;74.24;94300.34;5092692;28;20031;-77
2023/06/11 04:21:55;;;;;;;5.93;4.70;;;;;;;16.27;73.45;94300.69;5093714;28;20032;-76
2023/06/11 04:24:21;;;;;;;5.38;4.72;;;;;;;16.06;74.08;94299.50;5091863;28;20035;-78
2023/06/11 04:26:47;;;;;;;6.03;5.28;;;;;;;16.05;74.36;94295.25;5093611;28;20039;-77
2023/06/11 04:29:13;;;;;;;5.75;4.90;;;;;;;16.09;74.36;94298.34;5075444;28;20016;-77
2023/06/11 04:31:41;;;;;;;7.28;4.85;;;;;;;16.17;74.20;94292.25;5092311;28;20082;-77
2023/06/11 04:34:07;;;;;;;5.22;4.70;;;;;;;16.20;74.30;94294.50;5093113;28;20055;-77
2023/06/11 04:36:33;;;;;;;6.18;4.70;;;;;;;16.43;73.66;94294.50;5091981;28;20402;-78
2023/06/11 04:39:02;;;;;;;5.57;4.97;;;;;;;16.41;73.68;94283.38;5092087;28;20016;-77
2023/06/11 04:41:29;;;;;;;5.53;4.78;;;;;;;16.65;72.72;94287.63;5093265;28;20028;-77
2023/06/11 04:43:55;;;;;;;5.10;4.57;;;;;;;16.60;73.17;94284.72;5091757;28;20489;-77
2023/06/11 04:46:21;;;;;;;4.88;3.78;;;;;;;16.69;72.85;94284.47;5074839;28;20028;-76
2023/06/11 04:48:50;;;;;;;4.80;3.83;;;;;;;16.88;72.14;94277.13;5075010;28;20054;-76
2023/06/11 04:51:16;;;;;;;5.47;4.00;;;;;;;16.86;72.57;94290.44;5092988;28;20023;-76
2023/06/11 04:53:43;;;;;;;5.32;4.03;;;;;;;16.90;70.84;94275.94;5092924;28;20047;-76
2023/06/11 04:56:08;;;;;;;4.95;4.05;;;;;;;17.09;71.03;94281.69;5091465;28;20089;-77
2023/06/11 04:58:37;;;;;;;4.75;3.55;;;;;;;17.15;71.35;94284.38;5074998;28;20457;-77
2023/06/11 05:01:05;;;;;;;5.65;4.07;;;;;;;17.00;71.60;94282.75;5093039;28;20020;-76
2023/06/11 05:03:36;;;;;;;5.13;4.35;;;;;;;16.84;72.03;94286.34;5091572;28;20028;-77
2023/06/11 05:06:03;;;;;;;5.47;4.28;;;;;;;17.18;70.44;94293.72;5092580;28;20028;-76
2023/06/11 05:08:28;;;;;;;5.60;4.07;;;;;;;17.10;69.80;94284.09;5091704;28;20032;-76
2023/06/11 05:10:57;;;;;;;4.45;4.03;;;;;;;17.30;68.68;94287.03;5074639;28;20061;-77
2023/06/11 05:13:26;;;;;;;5.22;4.55;;;;;;;17.35;70.20;94292.53;5091682;28;20401;-76
2023/06/11 05:15:55;;;;;;;4.63;4.13;;;;;;;17.23;70.84;94288.75;5092485;28;20103;-76
2023/06/11 05:18:21;;;;;;;7.82;4.32;;;;;;;17.14;71.14;94290.66;5091202;28;20024;-77
2023/06/11 05:20:49;;;;;;;7.65;4.70;;;;;;;17.19;71.36;94290.91;5074470;28;20055;-77
2023/06/11 05:23:18;;;;;;;8.63;4.82;;;;;;;17.28;71.37;94294.28;5091332;28;20028;-77
2023/06/11 05:25:50;;;;;;;6.53;4.53;;;;;;;17.38;70.92;94294.81;5074754;28;20114;-76
2023/06/11 05:28:16;;;;;;;5.28;4.28;;;;;;;17.49;70.38;94295.34;5091167;28;20024;-77
2023/06/11 05:30:43;;;;;;;4.78;4.20;;;;;;;17.52;69.78;94289.72;5074321;28;20028;-76
2023/06/11 05:33:08;;;;;;;4.13;3.70;;;;;;;17.84;69.24;94307.75;5074378;28;20039;-77
2023/06/11 05:35:34;;;;;;;5.20;3.70;;;;;;;17.89;69.51;94294.06;5091925;28;20394;-77
2023/06/11 05:38:03;;;;;;;6.50;4.03;;;;;;;17.87;69.88;94298.69;5091125;28;20036;-76
2023/06/11 05:40:29;;;;;;;6.15;4.00;;;;;;;18.01;69.54;94292.59;5074761;28;20028;-78
2023/06/11 05:42:54;;;;;;;5.65;4.65;;;;;;;18.04;69.71;94299.28;5092264;28;20057;-77
2023/06/11 05:45:20;;;;;;;7.30;4.10;;;;;;;17.97;70.64;94309.75;5090927;28;20027;-77
2023/06/11 05:47:45;;;;;;;5.40;3.97;;;;;;;18.21;69.62;94311.19;5091788;28;20036;-77
2023/06/11 05:50:11;;;;;;;4.30;3.90;;;;;;;18.37;68.36;94310.16;5090774;28;20040;-76
2023/06/11 05:52:37;;;;;;;5.97;4.65;;;;;;;18.23;68.79;94303.94;5090638;28;20029;-76
2023/06/11 05:55:03;;;;;;;5.00;4.35;;;;;;;18.24;68.41;94312.66;5091946;28;20020;-77
2023/06/11 05:57:29;;;;;;;4.90;4.20;;;;;;;18.35;68.24;94312.16;5092021;28;20126;-77
2023/06/11 05:59:54;;;;;;;4.63;4.10;;;;;;;18.15;69.25;94304.06;5090592;28;20027;-77
2023/06/11 06:02:21;;;;;;;5.28;4.60;;;;;;;18.36;68.69;94312.97;5091132;28;20036;-77
2023/06/11 06:04:51;;;;;;;5.25;4.15;;;;;;;18.64;66.19;94305.97;5085244;28;20039;-77
2023/06/11 06:07:16;;;;;;;5.10;4.60;;;;;;;18.67;66.08;94307.41;5068973;28;20028;-76
2023/06/11 06:09:42;;;;;;;5.38;4.55;;;;;;;18.52;67.03;94296.94;5051879;28;20103;-76
2023/06/11 06:12:07;;;;;;;5.38;4.30;;;;;;;18.77;66.06;94317.63;5069591;28;20033;-77
2023/06/11 06:14:33;;;;;;;5.20;4.60;;;;;;;18.78;65.25;94314.00;5052324;28;20063;-77
2023/06/11 06:16:58;;;;;;;9.40;4.97;;;;;;;18.75;65.88;94313.38;5068541;28;20040;-77
2023/06/11 06:19:24;;;;;;;6.20;4.22;;;;;;;19.06;63.76;94314.84;5071023;28;20060;-77
2023/06/11 06:21:49;;;;;;;5.53;4.05;;;;;;;18.97;64.45;94313.34;5069929;28;20474;-77
2023/06/11 06:24:15;;;;;;;4.88;4.20;;;;;;;19.13;63.79;94299.91;5070168;28;20043;-77
2023/06/11 06:26:40;;;;;;;5.50;4.38;;;;;;;19.18;64.35;94313.31;5069867;28;20040;-77
2023/06/11 06:29:15;;;;;;;5.80;4.40;;;;;;;19.12;64.66;94311.44;5070045;28;20024;-77
2023/06/11 06:31:41;;;;;;;7.28;4.68;;;;;;;19.34;63.01;94306.13;5070645;28;20052;-77
2023/06/11 06:34:07;;;;;;;5.13;4.10;;;;;;;19.48;62.34;94304.41;5036827;28;20024;-77
2023/06/11 06:36:33;;;;;;;6.63;4.88;;;;;;;19.33;65.01;94312.38;5053033;28;20051;-77
2023/06/11 06:38:58;;;;;;;6.00;4.88;;;;;;;19.36;64.18;94314.63;5071143;28;20502;-77
2023/06/11 06:41:24;;;;;;;7.18;5.20;;;;;;;19.78;62.92;94310.22;5053290;28;20032;-77
2023/06/11 06:43:50;;;;;;;6.07;5.47;;;;;;;19.96;61.42;94307.91;5071028;28;20024;-77
2023/06/11 06:46:15;;;;;;;11.30;5.32;;;;;;;19.89;61.94;94312.31;5036328;28;20525;-76
2023/06/11 06:48:40;;;;;;;6.43;5.57;;;;;;;20.03;61.39;94311.38;5069885;28;20044;-77
2023/06/11 06:51:06;;;;;;;8.02;4.97;;;;;;;20.08;61.25;94308.94;5069939;28;20032;-77
2023/06/11 06:53:31;;;;;;;6.10;4.85;;;;;;;20.08;62.10;94303.66;5071571;28;20047;-78
2023/06/11 06:55:59;;;;;;;6.85;5.05;;;;;;;20.25;61.49;94306.78;5070800;28;20031;-76
2023/06/11 06:58:26;;;;;;;6.88;5.35;;;;;;;20.35;59.50;94301.13;5070322;28;20036;-79
2023/06/11 07:00:51;;;;;;;5.85;5.10;;;;;;;20.25;60.31;94298.03;5073881;28;20052;-78
2023/06/11 07:03:17;;;;;;;6.90;5.03;;;;;;;20.22;61.24;94293.16;5075220;28;20154;-79
2023/06/11 07:05:43;;;;;;;8.95;5.43;;;;;;;19.98;61.71;94313.78;5056731;28;20036;-79
2023/06/11 07:08:10;;;;;;;6.32;5.10;;;;;;;20.08;61.68;94302.84;5057250;28;20039;-79
2023/06/11 07:10:35;;;;;;;5.75;5.15;;;;;;;19.97;61.94;94304.25;5073547;28;20482;-78
2023/06/11 07:13:01;;;;;;;6.43;5.53;;;;;;;20.14;62.27;94303.88;5075307;28;20040;-79
2023/06/11 07:15:26;;;;;;;7.70;5.25;;;;;;;20.18;61.97;94305.94;5073328;28;20028;-79
2023/06/11 07:17:52;;;;;;;5.72;4.82;;;;;;;20.56;60.55;94299.34;5073725;28;20110;-78
2023/06/11 07:20:17;;;;;;;6.30;5.15;;;;;;;20.71;59.94;94292.09;5057170;28;20086;-78
2023/06/11 07:22:43;;;;;;;6.13;5.35;;;;;;;20.68;59.60;94303.84;5073631;28;20062;-79
2023/06/11 07:25:08;;;;;;;6.90;5.43;;;;;;;20.36;60.77;94299.28;5073099;28;20036;-79
2023/06/11 07:27:34;;;;;;;8.50;5.25;;;;;;;20.46;60.32;94299.72;5075680;28;20033;-79
2023/06/11 07:29:59;;;;;;;6.68;5.50;;;;;;;20.31;59.52;94266.44;5074280;28;20052;-79
2023/06/11 07:32:24;;;;;;;8.77;5.63;;;;;;;20.58;59.61;94292.88;5074750;28;20032;-78
2023/06/11 07:34:50;;;;;;;6.57;5.15;;;;;;;21.04;59.00;94297.38;5056252;28;20452;-78
2023/06/11 07:37:15;;;;;;;6.60;4.47;;;;;;;21.16;59.90;94292.28;5073290;28;20409;-78
2023/06/11 07:39:41;;;;;;;12.02;5.50;;;;;;;21.10;59.38;94301.03;5056526;28;20031;-82
2023/06/11 07:42:07;;;;;;;7.13;5.60;;;;;;;20.96;59.50;94282.53;5056375;28;20547;-83
2023/06/11 07:44:32;;;;;;;7.22;5.68;;;;;;;21.03;59.28;94284.34;5072533;28;20441;-83
2023/06/11 07:46:58;;;;;;;8.40;5.70;;;;;;;20.89;58.00;94281.72;5073008;28;20040;-82
2023/06/11 07:49:23;;;;;;;8.13;5.60;;;;;;;21.09;56.84;94268.53;5055923;28;20048;-83
2023/06/11 07:51:49;;;;;;;6.95;5.70;;;;;;;21.48;55.12;94281.88;5056181;28;20062;-83
2023/06/11 07:54:15;;;;;;;6.18;4.80;;;;;;;21.71;53.43;94276.97;5073642;28;20027;-83
2023/06/11 07:56:40;;;;;;;7.43;5.55;;;;;;;21.60;55.44;94275.75;5072758;28;20498;-83
2023/06/11 07:59:06;;;;;;;8.13;5.00;;;;;;;21.76;54.97;94274.50;5072663;28;20104;-83
2023/06/11 08:01:32;;;;;;;7.13;4.97;;;;;;;21.46;54.57;94279.47;5073848;28;20017;-83
2023/06/11 08:03:57;;;;;;;7.28;4.82;;;;;;;21.29;53.96;94265.06;5055806;28;20395;-83
2023/06/11 08:06:23;;;;;;;8.55;5.20;;;;;;;21.74;52.41;94279.19;5073967;28;20094;-83
2023/06/11 08:08:48;;;;;;;6.05;4.50;;;;;;;22.09;51.03;94276.16;5055660;28;20032;-83
2023/06/11 08:11:14;;;;;;;7.65;4.68;;;;;;;22.27;51.50;94270.22;5072647;28;20020;-83
2023/06/11 08:13:40;;;;;;;6.32;4.30;;;;;;;22.30;52.44;94273.25;5072357;28;20407;-81
2023/06/11 08:16:07;;;;;;;6.07;4.28;;;;;;;22.58;51.28;94265.97;5072205;28;20062;-82
2023/06/11 08:18:32;;;;;;;6.15;4.28;;;;;;;22.58;50.48;94269.41;5072342;28;20078;-83
2023/06/11 08:20:58;;;;;;;6.57;4.60;;;;;;;22.16;52.65;94239.94;5055881;28;20521;-83
2023/06/11 08:23:24;;;;;;;5.78;4.35;;;;;;;22.51;51.37;94273.94;5055242;28;20513;-82
2023/06/11 08:25:50;;;;;;;5.80;3.90;;;;;;;;;;5073285;28;20028;-82
2023/06/11 08:28:15;;;;;;;6.40;4.25;;;;;;;22.25;51.27;94270.44;5073793;28;20060;-83
2023/06/11 08:30:41;;;;;;;6.43;4.25;;;;;;;22.14;51.90;94265.78;5055491;28;20025;-82
2023/06/11 08:33:06;;;;;;;7.47;4.07;;;;;;;22.76;49.13;94266.03;5038594;28;20486;-83
2023/06/11 08:35:32;;;;;;;6.20;4.00;;;;;;;22.83;49.31;94273.94;5073245;28;20024;-83
2023/06/11 08:37:57;;;;;;;7.10;4.43;;;;;;;22.64;50.18;94254.53;5055464;28;20043;-82
2023/06/11 08:40:23;;;;;;;8.73;4.60;;;;;;;22.27;51.31;94244.59;5071696;28;20063;-83
2023/06/11 08:42:49;;;;;;;5.07;4.40;;;;;;;22.40;51.67;94259.56;5038870;28;20036;-83
2023/06/11 08:45:14;;;;;;;7.28;4.60;;;;;;;22.72;50.86;94270.13;5055731;28;20042;-82
2023/06/11 08:47:40;;;;;;;5.25;4.20;;;;;;;22.74;48.86;94271.53;5071834;28;20108;-83
2023/06/11 08:50:06;;;;;;;8.00;4.07;;;;;;;22.77;49.37;94267.66;5054915;28;20109;-82
2023/06/11 08:52:32;;;;;;;5.88;3.90;;;;;;;22.78;47.65;94277.22;5072766;28;20028;-83
2023/06/11 08:54:59;;;;;;;6.30;4.18;;;;;;;22.52;48.96;94275.56;5073182;28;20037;-83
2023/06/11 08:57:25;;;;;;;6.43;4.15;;;;;;;22.55;48.21;94255.81;5055921;28;20032;-83
2023/06/11 08:59:50;;;;;;;5.55;4.03;;;;;;;22.77;49.03;94261.56;5072301;28;20391;-82
2023/06/11 09:02:16;;;;;;;6.38;4.10;;;;;;;22.86;50.91;94270.84;5055111;28;20417;-82
2023/06/11 09:04:43;;;;;;;4.20;3.80;;;;;;;22.92;49.09;94254.09;5071325;28;20482;-82
2023/06/11 09:07:09;;;;;;;6.20;4.25;;;;;;;22.94;49.54;94260.00;5054818;28;20041;-82
2023/06/11 09:09:34;;;;;;;7.15;4.18;;;;;;;23.10;48.84;94259.47;5037698;28;20119;-83
2023/06/11 09:12:05;;;;;;;8.13;3.95;;;;;;;23.22;47.73;94261.41;5071439;28;20025;-82
2023/06/11 09:14:31;;;;;;;5.32;4.07;;;;;;;22.84;48.33;94254.38;5054659;28;20508;-82
2023/06/11 09:16:56;;;;;;;4.97;4.18;;;;;;;22.99;48.48;94262.84;5037940;28;20036;-81
2023/06/11 09:19:22;;;;;;;5.55;4.22;;;;;;;23.01;48.52;94258.09;5072387;28;20025;-82
2023/06/11 09:21:55;;;;;;;8.98;4.50;;;;;;;22.93;50.13;94251.25;5071805;28;20040;-83
2023/06/11 09:24:20;;;;;;;6.30;3.97;;;;;;;23.13;48.97;94245.78;5071274;28;20082;-82
2023/06/11 09:26:56;;;;;;;5.63;4.00;;;;;;;23.35;48.77;94248.03;5055039;28;20033;-83
2023/06/11 09:29:26;;;;;;;5.38;4.25;;;;;;;23.34;48.60;94243.75;5037881;28;20028;-83
2023/06/11 09:32:04;;;;;;;8.32;4.38;;;;;;;23.05;49.59;94235.47;5072066;28;20062;-83
2023/06/11 09:34:30;;;;;;;5.35;3.80;;;;;;;23.58;48.00;94244.72;5054535;28;20029;-83
2023/06/11 09:36:55;;;;;;;4.10;3.60;;;;;;;23.59;46.06;94239.19;5071211;28;20106;-81
2023/06/11 09:39:21;;;;;;;6.22;4.22;;;;;;;23.52;46.17;94235.81;5071257;28;20020;-83
2023/06/11 09:41:50;;;;;;;5.40;3.97;;;;;;;23.50;46.11;94232.56;5070622;28;20032;-83
2023/06/11 09:44:19;;;;;;;6.47;4.05;;;;;;;23.73;45.64;94220.50;5070333;28;20125;-83
2023/06/11 09:46:46;;;;;;;4.75;3.67;;;;;;;24.12;44.91;94234.31;5070859;28;20040;-83
2023/06/11 09:49:12;;;;;;;7.05;4.10;;;;;;;24.20;45.10;94231.34;5053914;28;20060;-82
2023/06/11 09:51:41;;;;;;;6.78;4.20;;;;;;;24.23;46.19;94221.06;5070431;28;20067;-83
2023/06/11 09:54:07;;;;;;;5.57;4.13;;;;;;;24.03;46.17;94208.09;5053761;28;20115;-83
2023/06/11 09:56:35;;;;;;;4.55;3.90;;;;;;;24.24;46.71;94222.72;5071658;28;20031;-83
2023/06/11 09:59:04;;;;;;;7.53;4.55;;;;;;;23.96;46.99;94220.66;5070353;28;20028;-83
2023/06/11 10:01:30;;;;;;;6.82;4.38;;;;;;;24.01;46.57;94218.09;5054153;28;20035;-83
2023/06/11 10:03:59;;;;;;;5.65;4.15;;;;;;;23.90;48.13;94207.47;5070387;28;20025;-83
2023/06/11 10:06:29;;;;;;;4.45;3.97;;;;;;;24.01;44.18;94217.31;5070256;28;20548;-83
2023/06/11 10:08:57;;;;;;;8.05;4.28;;;;;;;24.02;41.68;94214.44;5053642;28;20490;-82
2023/06/11 10:11:22;;;;;;;7.35;4.50;;;;;;;24.33;43.41;94220.53;5070249;28;20111;-82
2023/06/11 10:13:58;;;;;;;7.03;4.30;;;;;;;24.16;41.60;94211.63;5053630;28;20028;-83
2023/06/11 10:16:24;;;;;;;6.80;4.03;;;;;;;24.34;42.39;94206.22;5053407;28;20406;-82
2023/06/11 10:19:05;;;;;;;5.47;4.40;;;;;;;24.53;42.08;94204.34;5069991;28;20119;-83
2023/06/11 10:21:50;;;;;;;5.25;3.80;;;;;;;24.26;42.13;94198.59;5070273;28;20028;-82
2023/06/11 10:24:28;;;;;;;5.55;4.13;;;;;;;24.07;42.62;94206.63;5053461;28;20037;-83
2023/06/11 10:27:07;;;;;;;5.43;3.80;;;;;;;24.14;41.17;94195.09;5070015;28;20561;-82
2023/06/11 10:29:39;;;;;;;5.85;4.22;;;;;;;24.06;41.68;94183.75;5070075;28;20130;-82
2023/06/11 10:32:20;;;;;;;4.82;3.85;;;;;;;24.06;42.41;94193.56;5053530;28;20025;-83
2023/06/11 10:35:00;;;;;;;6.53;4.00;;;;;;;23.99;42.17;94184.91;5073986;28;20486;-83
2023/06/11 10:37:46;;;;;;;4.70;4.20;;;;;;;24.25;42.03;94187.19;5041230;28;20067;-82
2023/06/11 10:40:11;;;;;;;4.70;3.97;;;;;;;24.25;41.51;94191.69;5075834;28;20275;-82
2023/06/11 10:42:38;;;;;;;5.05;4.10;;;;;;;24.07;40.75;94190.72;5076844;28;20032;-82
2023/06/11 10:45:11;;;;;;;7.25;4.32;;;;;;;24.18;40.81;94191.78;5074078;28;20557;-82
2023/06/11 10:47:44;;;;;;;5.40;4.40;;;;;;;24.06;42.21;94183.75;5073901;28;20032;-81
2023/06/11 10:50:14;;;;;;;4.80;4.03;;;;;;;24.25;42.06;94176.56;5057312;28;20114;-82
2023/06/11 10:52:55;;;;;;;8.52;4.32;;;;;;;24.19;42.23;94179.31;5057991;28;20036;-82
2023/06/11 10:55:21;;;;;;;8.50;4.18;;;;;;;24.28;41.59;94181.41;5057109;28;20403;-82
2023/06/11 10:57:51;;;;;;;5.93;4.05;;;;;;;24.82;40.38;94181.41;5057300;28;20059;-82
2023/06/11 11:00:16;;;;;;;5.17;4.03;;;;;;;24.73;41.73;94178.28;5057224;28;20029;-82
2023/06/11 11:02:42;;;;;;;5.72;4.10;;;;;;;24.58;42.22;94174.47;5073968;28;20792;-83
2023/06/11 11:05:10;;;;;;;7.15;4.18;;;;;;;24.18;42.98;94183.00;5074975;28;20035;-83
2023/06/11 11:07:36;;;;;;;6.82;4.05;;;;;;;24.41;42.85;94172.44;5040234;28;20044;-82
2023/06/11 11:10:02;;;;;;;5.28;4.00;;;;;;;24.26;41.43;94156.13;5057108;28;20063;-82
2023/06/11 11:12:37;;;;;;;6.55;4.28;;;;;;;24.40;41.67;94162.06;5073782;28;20032;-83
2023/06/11 11:15:03;;;;;;;5.88;3.90;;;;;;;24.57;42.38;94186.91;5056771;28;20055;-84
2023/06/11 11:17:30;;;;;;;6.35;3.20;;;;;;;23.89;45.29;94185.44;5073326;28;20040;-83
2023/06/11 11:19:56;;;;;;;4.78;3.13;;;;;;;24.05;44.39;94181.34;5056925;28;20035;-83
2023/06/11 11:22:22;;;;;;;5.88;3.58;;;;;;;23.82;43.88;94176.75;5073392;28;20067;-83
2023/06/11 11:24:47;;;;;;;8.02;3.72;;;;;;;23.82;44.35;94188.19;5056547;28;20463;-82
2023/06/11 11:27:13;;;;;;;4.53;3.30;;;;;;;23.42;46.14;94198.41;5056381;28;20041;-83
2023/06/11 11:29:38;;;;;;;5.72;3.53;;;;;;;23.44;46.11;94187.59;5056514;28;20036;-83
2023/06/11 11:32:04;;;;;;;5.50;3.30;;;;;;;23.49;44.19;94180.59;5056564;28;20105;-83